sensor_id;sensor_type;location;lat;lon;timestamp;P1;durP1;ratioP1;P2;durP2;ratioP2
68076;SDS011;54866;53.458;14.540;2023-04-03T00:01:42;3.90;;;1.10;;
68076;SDS011;54866;53.458;14.540;2023-04-03T00:04:12;3.50;;;1.40;;
68076;SDS011;54866;53.458;14.540;2023-04-03T00:06:42;1.60;;;1.10;;
68076;SDS011;54866;53.458;14.540;2023-04-03T00:09:11;5.60;;;1.30;;
68076;SDS011;54866;53.458;14.540;2023-04-03T00:11:41;2.70;;;1.00;;
68076;SDS011;54866;53.458;14.540;2023-04-03T00:14:10;5.50;;;1.70;;
68076;SDS011;54866;53.458;14.540;2023-04-03T00:16:40;5.10;;;1.60;;
68076;SDS011;54866;53.458;14.540;2023-04-03T00:19:09;7.30;;;1.40;;
68076;SDS011;54866;53.458;14.540;2023-04-03T00:21:39;4.80;;;1.50;;
68076;SDS011;54866;53.458;14.540;2023-04-03T00:24:09;3.50;;;1.00;;
68076;SDS011;54866;53.458;14.540;2023-04-03T00:26:38;3.40;;;1.10;;
68076;SDS011;54866;53.458;14.540;2023-04-03T00:29:08;4.60;;;1.00;;
68076;SDS011;54866;53.458;14.540;2023-04-03T00:31:38;2.20;;;0.70;;
68076;SDS011;54866;53.458;14.540;2023-04-03T00:34:07;2.40;;;0.80;;
68076;SDS011;54866;53.458;14.540;2023-04-03T00:36:37;2.10;;;1.00;;
68076;SDS011;54866;53.458;14.540;2023-04-03T00:39:06;4.50;;;1.30;;
68076;SDS011;54866;53.458;14.540;2023-04-03T00:41:36;1.50;;;0.70;;
68076;SDS011;54866;53.458;14.540;2023-04-03T00:44:20;2.50;;;1.00;;
68076;SDS011;54866;53.458;14.540;2023-04-03T00:47:10;1.90;;;0.80;;
68076;SDS011;54866;53.458;14.540;2023-04-03T00:49:42;3.20;;;0.80;;
68076;SDS011;54866;53.458;14.540;2023-04-03T00:52:13;3.00;;;0.90;;
68076;SDS011;54866;53.458;14.540;2023-04-03T00:54:45;4.50;;;0.70;;
68076;SDS011;54866;53.458;14.540;2023-04-03T00:57:16;1.80;;;0.70;;
68076;SDS011;54866;53.458;14.540;2023-04-03T00:59:48;3.40;;;1.40;;
68076;SDS011;54866;53.458;14.540;2023-04-03T01:02:21;2.20;;;0.80;;
68076;SDS011;54866;53.458;14.540;2023-04-03T01:04:50;5.00;;;1.10;;
68076;SDS011;54866;53.458;14.540;2023-04-03T01:07:21;2.90;;;0.80;;
68076;SDS011;54866;53.458;14.540;2023-04-03T01:09:56;5.30;;;1.10;;
68076;SDS011;54866;53.458;14.540;2023-04-03T01:12:27;2.10;;;0.70;;
68076;SDS011;54866;53.458;14.540;2023-04-03T01:14:59;4.20;;;0.90;;
68076;SDS011;54866;53.458;14.540;2023-04-03T01:17:32;6.20;;;1.10;;
68076;SDS011;54866;53.458;14.540;2023-04-03T01:23:24;2.00;;;0.80;;
68076;SDS011;54866;53.458;14.540;2023-04-03T01:26:00;4.40;;;0.90;;
68076;SDS011;54866;53.458;14.540;2023-04-03T01:28:31;2.60;;;0.80;;
68076;SDS011;54866;53.458;14.540;2023-04-03T01:31:05;2.30;;;0.70;;
68076;SDS011;54866;53.458;14.540;2023-04-03T01:33:42;2.20;;;0.60;;
68076;SDS011;54866;53.458;14.540;2023-04-03T01:36:13;2.30;;;1.00;;
68076;SDS011;54866;53.458;14.540;2023-04-03T01:38:44;3.80;;;0.70;;
68076;SDS011;54866;53.458;14.540;2023-04-03T01:41:14;1.30;;;0.70;;
68076;SDS011;54866;53.458;14.540;2023-04-03T01:43:44;2.90;;;1.00;;
68076;SDS011;54866;53.458;14.540;2023-04-03T01:46:13;5.80;;;1.20;;
68076;SDS011;54866;53.458;14.540;2023-04-03T01:48:44;3.20;;;0.80;;
68076;SDS011;54866;53.458;14.540;2023-04-03T01:51:13;2.70;;;0.80;;
68076;SDS011;54866;53.458;14.540;2023-04-03T01:53:43;1.90;;;0.60;;
68076;SDS011;54866;53.458;14.540;2023-04-03T01:56:12;1.40;;;0.70;;
68076;SDS011;54866;53.458;14.540;2023-04-03T01:58:42;5.80;;;0.90;;
68076;SDS011;54866;53.458;14.540;2023-04-03T02:01:12;4.10;;;0.80;;
68076;SDS011;54866;53.458;14.540;2023-04-03T02:03:41;5.30;;;1.00;;
68076;SDS011;54866;53.458;14.540;2023-04-03T02:06:11;4.80;;;1.20;;
68076;SDS011;54866;53.458;14.540;2023-04-03T02:08:40;4.50;;;0.90;;
68076;SDS011;54866;53.458;14.540;2023-04-03T02:11:10;3.20;;;0.70;;
68076;SDS011;54866;53.458;14.540;2023-04-03T02:13:39;1.20;;;0.40;;
68076;SDS011;54866;53.458;14.540;2023-04-03T02:16:09;1.90;;;0.50;;
68076;SDS011;54866;53.458;14.540;2023-04-03T02:18:39;2.10;;;0.70;;
68076;SDS011;54866;53.458;14.540;2023-04-03T02:21:09;4.00;;;0.60;;
68076;SDS011;54866;53.458;14.540;2023-04-03T02:23:39;1.40;;;0.60;;
68076;SDS011;54866;53.458;14.540;2023-04-03T02:26:09;2.00;;;0.60;;
68076;SDS011;54866;53.458;14.540;2023-04-03T02:28:40;3.00;;;1.20;;
68076;SDS011;54866;53.458;14.540;2023-04-03T02:31:10;1.00;;;0.50;;
68076;SDS011;54866;53.458;14.540;2023-04-03T02:33:39;2.30;;;0.80;;
68076;SDS011;54866;53.458;14.540;2023-04-03T02:36:09;1.40;;;1.00;;
68076;SDS011;54866;53.458;14.540;2023-04-03T02:38:39;4.90;;;1.30;;
68076;SDS011;54866;53.458;14.540;2023-04-03T02:41:09;2.40;;;0.60;;
68076;SDS011;54866;53.458;14.540;2023-04-03T02:43:39;1.80;;;0.60;;
68076;SDS011;54866;53.458;14.540;2023-04-03T02:46:09;4.60;;;0.90;;
68076;SDS011;54866;53.458;14.540;2023-04-03T02:48:41;3.50;;;0.80;;
68076;SDS011;54866;53.458;14.540;2023-04-03T02:51:11;1.80;;;1.00;;
68076;SDS011;54866;53.458;14.540;2023-04-03T02:53:40;4.10;;;1.20;;
68076;SDS011;54866;53.458;14.540;2023-04-03T02:56:10;2.80;;;0.50;;
68076;SDS011;54866;53.458;14.540;2023-04-03T02:58:39;3.70;;;0.70;;
68076;SDS011;54866;53.458;14.540;2023-04-03T03:01:09;1.80;;;0.40;;
68076;SDS011;54866;53.458;14.540;2023-04-03T03:03:39;1.20;;;0.50;;
68076;SDS011;54866;53.458;14.540;2023-04-03T03:06:09;2.10;;;0.50;;
68076;SDS011;54866;53.458;14.540;2023-04-03T03:08:41;0.80;;;0.30;;
68076;SDS011;54866;53.458;14.540;2023-04-03T03:11:11;3.20;;;1.30;;
68076;SDS011;54866;53.458;14.540;2023-04-03T03:13:41;2.50;;;0.60;;
68076;SDS011;54866;53.458;14.540;2023-04-03T03:16:10;2.30;;;0.70;;
68076;SDS011;54866;53.458;14.540;2023-04-03T03:18:40;1.60;;;0.60;;
68076;SDS011;54866;53.458;14.540;2023-04-03T03:21:09;4.50;;;1.00;;
68076;SDS011;54866;53.458;14.540;2023-04-03T03:23:39;2.80;;;1.00;;
68076;SDS011;54866;53.458;14.540;2023-04-03T03:26:10;2.80;;;0.60;;
68076;SDS011;54866;53.458;14.540;2023-04-03T03:28:40;2.10;;;0.80;;
68076;SDS011;54866;53.458;14.540;2023-04-03T03:31:09;1.60;;;0.50;;
68076;SDS011;54866;53.458;14.540;2023-04-03T03:33:39;2.00;;;0.70;;
68076;SDS011;54866;53.458;14.540;2023-04-03T03:36:09;2.60;;;0.90;;
68076;SDS011;54866;53.458;14.540;2023-04-03T03:38:39;2.40;;;0.60;;
68076;SDS011;54866;53.458;14.540;2023-04-03T03:41:08;2.20;;;1.20;;
68076;SDS011;54866;53.458;14.540;2023-04-03T03:43:38;1.50;;;0.50;;
68076;SDS011;54866;53.458;14.540;2023-04-03T03:46:07;3.30;;;1.50;;
68076;SDS011;54866;53.458;14.540;2023-04-03T03:48:37;3.20;;;1.10;;
68076;SDS011;54866;53.458;14.540;2023-04-03T03:51:06;1.50;;;0.50;;
68076;SDS011;54866;53.458;14.540;2023-04-03T03:53:36;6.00;;;1.20;;
68076;SDS011;54866;53.458;14.540;2023-04-03T03:56:05;2.10;;;0.80;;
68076;SDS011;54866;53.458;14.540;2023-04-03T03:58:36;1.40;;;0.40;;
68076;SDS011;54866;53.458;14.540;2023-04-03T04:01:06;0.80;;;0.70;;
68076;SDS011;54866;53.458;14.540;2023-04-03T04:03:36;1.50;;;0.60;;
68076;SDS011;54866;53.458;14.540;2023-04-03T04:06:06;4.20;;;1.00;;
68076;SDS011;54866;53.458;14.540;2023-04-03T04:08:35;1.40;;;0.70;;
68076;SDS011;54866;53.458;14.540;2023-04-03T04:11:05;2.40;;;0.90;;
68076;SDS011;54866;53.458;14.540;2023-04-03T04:13:35;2.70;;;1.10;;
68076;SDS011;54866;53.458;14.540;2023-04-03T04:16:05;1.90;;;0.80;;
68076;SDS011;54866;53.458;14.540;2023-04-03T04:18:36;1.30;;;0.50;;
68076;SDS011;54866;53.458;14.540;2023-04-03T04:21:05;1.50;;;0.70;;
68076;SDS011;54866;53.458;14.540;2023-04-03T04:23:35;4.50;;;1.20;;
68076;SDS011;54866;53.458;14.540;2023-04-03T04:26:05;1.70;;;0.70;;
68076;SDS011;54866;53.458;14.540;2023-04-03T04:28:34;2.10;;;0.70;;
68076;SDS011;54866;53.458;14.540;2023-04-03T04:31:04;2.00;;;0.80;;
68076;SDS011;54866;53.458;14.540;2023-04-03T04:33:33;1.60;;;0.90;;
68076;SDS011;54866;53.458;14.540;2023-04-03T04:36:03;3.40;;;1.00;;
68076;SDS011;54866;53.458;14.540;2023-04-03T04:38:33;1.70;;;0.70;;
68076;SDS011;54866;53.458;14.540;2023-04-03T04:41:02;1.50;;;0.80;;
68076;SDS011;54866;53.458;14.540;2023-04-03T04:43:32;3.10;;;1.00;;
68076;SDS011;54866;53.458;14.540;2023-04-03T04:46:02;1.80;;;0.80;;
68076;SDS011;54866;53.458;14.540;2023-04-03T04:48:33;3.90;;;0.90;;
68076;SDS011;54866;53.458;14.540;2023-04-03T04:51:04;1.80;;;0.70;;
68076;SDS011;54866;53.458;14.540;2023-04-03T04:53:34;2.90;;;1.40;;
68076;SDS011;54866;53.458;14.540;2023-04-03T04:56:04;4.00;;;1.10;;
68076;SDS011;54866;53.458;14.540;2023-04-03T04:58:34;3.10;;;1.20;;
68076;SDS011;54866;53.458;14.540;2023-04-03T05:01:05;2.80;;;0.90;;
68076;SDS011;54866;53.458;14.540;2023-04-03T05:03:35;1.00;;;0.50;;
68076;SDS011;54866;53.458;14.540;2023-04-03T05:06:05;3.50;;;1.00;;
68076;SDS011;54866;53.458;14.540;2023-04-03T05:08:35;3.00;;;1.00;;
68076;SDS011;54866;53.458;14.540;2023-04-03T05:11:05;2.80;;;0.80;;
68076;SDS011;54866;53.458;14.540;2023-04-03T05:13:34;2.10;;;0.80;;
68076;SDS011;54866;53.458;14.540;2023-04-03T05:16:04;2.70;;;0.90;;
68076;SDS011;54866;53.458;14.540;2023-04-03T05:18:34;1.60;;;0.70;;
68076;SDS011;54866;53.458;14.540;2023-04-03T05:21:04;3.50;;;1.10;;
68076;SDS011;54866;53.458;14.540;2023-04-03T05:23:33;3.30;;;1.40;;
68076;SDS011;54866;53.458;14.540;2023-04-03T05:26:03;4.00;;;1.40;;
68076;SDS011;54866;53.458;14.540;2023-04-03T05:28:33;5.20;;;1.50;;
68076;SDS011;54866;53.458;14.540;2023-04-03T05:31:03;4.20;;;1.80;;
68076;SDS011;54866;53.458;14.540;2023-04-03T05:33:32;3.30;;;1.10;;
68076;SDS011;54866;53.458;14.540;2023-04-03T05:36:03;3.90;;;1.40;;
68076;SDS011;54866;53.458;14.540;2023-04-03T05:38:34;3.60;;;1.40;;
68076;SDS011;54866;53.458;14.540;2023-04-03T05:41:03;3.40;;;1.10;;
68076;SDS011;54866;53.458;14.540;2023-04-03T05:43:33;2.90;;;1.00;;
68076;SDS011;54866;53.458;14.540;2023-04-03T05:46:04;4.10;;;1.40;;
68076;SDS011;54866;53.458;14.540;2023-04-03T05:48:37;2.80;;;1.70;;
68076;SDS011;54866;53.458;14.540;2023-04-03T05:51:09;5.10;;;1.50;;
68076;SDS011;54866;53.458;14.540;2023-04-03T05:53:43;4.00;;;1.40;;
68076;SDS011;54866;53.458;14.540;2023-04-03T05:56:15;3.20;;;1.10;;
68076;SDS011;54866;53.458;14.540;2023-04-03T05:58:44;2.20;;;0.90;;
68076;SDS011;54866;53.458;14.540;2023-04-03T06:01:14;2.60;;;1.40;;
68076;SDS011;54866;53.458;14.540;2023-04-03T06:03:43;2.60;;;1.00;;
68076;SDS011;54866;53.458;14.540;2023-04-03T06:06:13;2.50;;;1.10;;
68076;SDS011;54866;53.458;14.540;2023-04-03T06:08:43;4.10;;;1.10;;
68076;SDS011;54866;53.458;14.540;2023-04-03T06:11:13;2.60;;;0.80;;
68076;SDS011;54866;53.458;14.540;2023-04-03T06:13:43;4.50;;;1.20;;
68076;SDS011;54866;53.458;14.540;2023-04-03T06:16:13;1.90;;;1.00;;
68076;SDS011;54866;53.458;14.540;2023-04-03T06:18:44;3.20;;;1.30;;
68076;SDS011;54866;53.458;14.540;2023-04-03T06:21:14;2.40;;;1.00;;
68076;SDS011;54866;53.458;14.540;2023-04-03T06:23:44;3.90;;;1.40;;
68076;SDS011;54866;53.458;14.540;2023-04-03T06:26:13;4.10;;;1.70;;
68076;SDS011;54866;53.458;14.540;2023-04-03T06:28:43;4.40;;;1.60;;
68076;SDS011;54866;53.458;14.540;2023-04-03T06:31:12;3.60;;;1.60;;
68076;SDS011;54866;53.458;14.540;2023-04-03T06:33:42;4.10;;;1.40;;
68076;SDS011;54866;53.458;14.540;2023-04-03T06:36:12;3.20;;;1.10;;
68076;SDS011;54866;53.458;14.540;2023-04-03T06:38:46;3.70;;;1.10;;
68076;SDS011;54866;53.458;14.540;2023-04-03T06:41:16;4.60;;;0.90;;
68076;SDS011;54866;53.458;14.540;2023-04-03T06:43:46;4.80;;;1.60;;
68076;SDS011;54866;53.458;14.540;2023-04-03T06:46:16;3.80;;;1.60;;
68076;SDS011;54866;53.458;14.540;2023-04-03T06:48:48;2.70;;;1.00;;
68076;SDS011;54866;53.458;14.540;2023-04-03T06:51:21;4.10;;;1.40;;
68076;SDS011;54866;53.458;14.540;2023-04-03T06:53:53;1.80;;;0.90;;
68076;SDS011;54866;53.458;14.540;2023-04-03T06:56:24;2.80;;;0.80;;
68076;SDS011;54866;53.458;14.540;2023-04-03T06:58:54;4.00;;;1.30;;
68076;SDS011;54866;53.458;14.540;2023-04-03T07:01:25;4.20;;;2.40;;
68076;SDS011;54866;53.458;14.540;2023-04-03T07:03:55;3.50;;;1.10;;
68076;SDS011;54866;53.458;14.540;2023-04-03T07:06:25;5.50;;;1.60;;
68076;SDS011;54866;53.458;14.540;2023-04-03T07:08:55;2.90;;;1.80;;
68076;SDS011;54866;53.458;14.540;2023-04-03T07:11:24;4.90;;;0.90;;
68076;SDS011;54866;53.458;14.540;2023-04-03T07:13:54;1.80;;;0.80;;
68076;SDS011;54866;53.458;14.540;2023-04-03T07:16:24;3.60;;;1.30;;
68076;SDS011;54866;53.458;14.540;2023-04-03T07:18:53;1.90;;;1.40;;
68076;SDS011;54866;53.458;14.540;2023-04-03T07:21:23;2.30;;;1.40;;
68076;SDS011;54866;53.458;14.540;2023-04-03T07:23:53;3.00;;;1.60;;
68076;SDS011;54866;53.458;14.540;2023-04-03T07:26:23;1.60;;;0.60;;
68076;SDS011;54866;53.458;14.540;2023-04-03T07:28:53;2.20;;;0.70;;
68076;SDS011;54866;53.458;14.540;2023-04-03T07:31:22;3.60;;;0.80;;
68076;SDS011;54866;53.458;14.540;2023-04-03T07:33:52;2.30;;;0.90;;
68076;SDS011;54866;53.458;14.540;2023-04-03T07:36:22;2.60;;;1.10;;
68076;SDS011;54866;53.458;14.540;2023-04-03T07:38:52;2.90;;;1.30;;
68076;SDS011;54866;53.458;14.540;2023-04-03T07:41:21;1.70;;;0.70;;
68076;SDS011;54866;53.458;14.540;2023-04-03T07:43:51;2.70;;;1.50;;
68076;SDS011;54866;53.458;14.540;2023-04-03T07:46:21;1.50;;;0.50;;
68076;SDS011;54866;53.458;14.540;2023-04-03T07:48:50;1.30;;;0.50;;
68076;SDS011;54866;53.458;14.540;2023-04-03T07:51:20;3.70;;;1.30;;
68076;SDS011;54866;53.458;14.540;2023-04-03T07:53:51;3.40;;;1.30;;
68076;SDS011;54866;53.458;14.540;2023-04-03T07:56:20;2.50;;;0.90;;
68076;SDS011;54866;53.458;14.540;2023-04-03T17:04:19;2.30;;;0.80;;
68076;SDS011;54866;53.458;14.540;2023-04-03T17:06:49;4.80;;;1.10;;
68076;SDS011;54866;53.458;14.540;2023-04-03T17:09:19;3.50;;;1.60;;
68076;SDS011;54866;53.458;14.540;2023-04-03T17:11:49;6.20;;;1.70;;
68076;SDS011;54866;53.458;14.540;2023-04-03T17:14:18;5.20;;;2.60;;
68076;SDS011;54866;53.458;14.540;2023-04-03T17:16:48;3.50;;;1.30;;
68076;SDS011;54866;53.458;14.540;2023-04-03T17:19:19;6.80;;;3.60;;
68076;SDS011;54866;53.458;14.540;2023-04-03T17:21:49;3.80;;;1.70;;
68076;SDS011;54866;53.458;14.540;2023-04-03T17:24:19;5.20;;;1.60;;
68076;SDS011;54866;53.458;14.540;2023-04-03T17:26:49;5.10;;;1.50;;
68076;SDS011;54866;53.458;14.540;2023-04-03T17:29:18;3.30;;;1.40;;
68076;SDS011;54866;53.458;14.540;2023-04-03T17:31:48;4.80;;;1.60;;
68076;SDS011;54866;53.458;14.540;2023-04-03T17:34:18;6.80;;;2.20;;
68076;SDS011;54866;53.458;14.540;2023-04-03T17:36:47;4.10;;;2.00;;
68076;SDS011;54866;53.458;14.540;2023-04-03T17:39:17;3.80;;;1.90;;
68076;SDS011;54866;53.458;14.540;2023-04-03T17:41:47;3.00;;;1.70;;
68076;SDS011;54866;53.458;14.540;2023-04-03T17:44:16;5.90;;;2.20;;
68076;SDS011;54866;53.458;14.540;2023-04-03T17:46:46;5.00;;;1.80;;
68076;SDS011;54866;53.458;14.540;2023-04-03T17:49:15;3.30;;;1.40;;
68076;SDS011;54866;53.458;14.540;2023-04-03T17:51:46;3.10;;;1.50;;
68076;SDS011;54866;53.458;14.540;2023-04-03T17:54:16;5.50;;;1.90;;
68076;SDS011;54866;53.458;14.540;2023-04-03T17:56:45;4.60;;;1.90;;
68076;SDS011;54866;53.458;14.540;2023-04-03T17:59:15;5.70;;;2.90;;
68076;SDS011;54866;53.458;14.540;2023-04-03T18:01:45;4.60;;;1.80;;
68076;SDS011;54866;53.458;14.540;2023-04-03T18:04:15;4.20;;;1.80;;
68076;SDS011;54866;53.458;14.540;2023-04-03T18:06:45;6.70;;;2.40;;
68076;SDS011;54866;53.458;14.540;2023-04-03T18:09:18;7.70;;;2.30;;
68076;SDS011;54866;53.458;14.540;2023-04-03T18:11:50;10.80;;;4.50;;
68076;SDS011;54866;53.458;14.540;2023-04-03T18:14:21;14.60;;;6.20;;
68076;SDS011;54866;53.458;14.540;2023-04-03T18:16:53;16.00;;;7.10;;
68076;SDS011;54866;53.458;14.540;2023-04-03T18:19:24;20.70;;;8.70;;
68076;SDS011;54866;53.458;14.540;2023-04-03T18:21:56;18.70;;;6.20;;
68076;SDS011;54866;53.458;14.540;2023-04-03T18:26:57;9.40;;;4.60;;
68076;SDS011;54866;53.458;14.540;2023-04-03T18:29:29;7.50;;;3.10;;
68076;SDS011;54866;53.458;14.540;2023-04-03T18:34:30;6.30;;;2.30;;
68076;SDS011;54866;53.458;14.540;2023-04-03T18:37:00;3.70;;;1.90;;
68076;SDS011;54866;53.458;14.540;2023-04-03T18:39:32;4.30;;;2.10;;
68076;SDS011;54866;53.458;14.540;2023-04-03T18:42:04;10.00;;;5.70;;
68076;SDS011;54866;53.458;14.540;2023-04-03T18:44:36;4.80;;;2.80;;
68076;SDS011;54866;53.458;14.540;2023-04-03T18:47:07;3.70;;;1.80;;
68076;SDS011;54866;53.458;14.540;2023-04-03T18:49:38;5.30;;;2.40;;
68076;SDS011;54866;53.458;14.540;2023-04-03T18:52:10;4.10;;;2.50;;
68076;SDS011;54866;53.458;14.540;2023-04-03T18:54:39;7.10;;;2.80;;
68076;SDS011;54866;53.458;14.540;2023-04-03T18:57:09;4.70;;;2.50;;
68076;SDS011;54866;53.458;14.540;2023-04-03T18:59:39;5.10;;;2.80;;
68076;SDS011;54866;53.458;14.540;2023-04-03T19:02:08;6.10;;;2.70;;
68076;SDS011;54866;53.458;14.540;2023-04-03T19:04:39;3.60;;;1.80;;
68076;SDS011;54866;53.458;14.540;2023-04-03T19:07:09;4.60;;;2.10;;
68076;SDS011;54866;53.458;14.540;2023-04-03T19:09:39;5.80;;;2.50;;
68076;SDS011;54866;53.458;14.540;2023-04-03T19:12:08;11.10;;;3.60;;
68076;SDS011;54866;53.458;14.540;2023-04-03T19:14:38;10.90;;;2.60;;
68076;SDS011;54866;53.458;14.540;2023-04-03T19:17:08;7.50;;;3.70;;
68076;SDS011;54866;53.458;14.540;2023-04-03T19:19:37;7.10;;;3.90;;
68076;SDS011;54866;53.458;14.540;2023-04-03T19:22:07;8.60;;;3.50;;
68076;SDS011;54866;53.458;14.540;2023-04-03T19:24:37;6.80;;;3.40;;
68076;SDS011;54866;53.458;14.540;2023-04-03T19:27:06;4.60;;;2.60;;
68076;SDS011;54866;53.458;14.540;2023-04-03T19:29:36;6.60;;;2.70;;
68076;SDS011;54866;53.458;14.540;2023-04-03T19:32:06;5.90;;;2.30;;
68076;SDS011;54866;53.458;14.540;2023-04-03T19:34:35;5.70;;;2.60;;
68076;SDS011;54866;53.458;14.540;2023-04-03T19:37:05;6.70;;;2.10;;
68076;SDS011;54866;53.458;14.540;2023-04-03T19:39:36;3.70;;;2.00;;
68076;SDS011;54866;53.458;14.540;2023-04-03T19:42:06;5.80;;;2.20;;
68076;SDS011;54866;53.458;14.540;2023-04-03T19:44:36;4.20;;;2.00;;
68076;SDS011;54866;53.458;14.540;2023-04-03T19:47:06;5.90;;;2.00;;
68076;SDS011;54866;53.458;14.540;2023-04-03T19:49:36;6.50;;;2.10;;
68076;SDS011;54866;53.458;14.540;2023-04-03T19:52:07;3.00;;;2.10;;
68076;SDS011;54866;53.458;14.540;2023-04-03T19:54:36;4.00;;;3.20;;
68076;SDS011;54866;53.458;14.540;2023-04-03T19:57:06;5.80;;;2.80;;
68076;SDS011;54866;53.458;14.540;2023-04-03T19:59:36;5.70;;;3.10;;
68076;SDS011;54866;53.458;14.540;2023-04-03T20:02:06;6.10;;;3.00;;
68076;SDS011;54866;53.458;14.540;2023-04-03T20:04:35;5.30;;;2.80;;
68076;SDS011;54866;53.458;14.540;2023-04-03T20:07:05;6.30;;;2.30;;
68076;SDS011;54866;53.458;14.540;2023-04-03T20:09:35;8.10;;;2.90;;
68076;SDS011;54866;53.458;14.540;2023-04-03T20:12:05;4.80;;;2.80;;
68076;SDS011;54866;53.458;14.540;2023-04-03T20:14:36;3.30;;;2.00;;
68076;SDS011;54866;53.458;14.540;2023-04-03T20:17:06;7.20;;;2.40;;
68076;SDS011;54866;53.458;14.540;2023-04-03T20:19:36;3.70;;;1.40;;
68076;SDS011;54866;53.458;14.540;2023-04-03T20:22:06;4.90;;;2.30;;
68076;SDS011;54866;53.458;14.540;2023-04-03T20:24:36;4.00;;;2.10;;
68076;SDS011;54866;53.458;14.540;2023-04-03T20:27:05;4.90;;;2.20;;
68076;SDS011;54866;53.458;14.540;2023-04-03T20:29:35;2.70;;;1.70;;
68076;SDS011;54866;53.458;14.540;2023-04-03T20:32:05;7.10;;;2.40;;
68076;SDS011;54866;53.458;14.540;2023-04-03T20:34:37;7.20;;;1.90;;
68076;SDS011;54866;53.458;14.540;2023-04-03T20:37:07;6.70;;;2.00;;
68076;SDS011;54866;53.458;14.540;2023-04-03T20:39:37;3.90;;;1.90;;
68076;SDS011;54866;53.458;14.540;2023-04-03T20:42:06;3.80;;;2.00;;
68076;SDS011;54866;53.458;14.540;2023-04-03T20:44:36;4.30;;;1.40;;
68076;SDS011;54866;53.458;14.540;2023-04-03T20:47:06;4.30;;;2.00;;
68076;SDS011;54866;53.458;14.540;2023-04-03T20:49:36;5.20;;;2.20;;
68076;SDS011;54866;53.458;14.540;2023-04-03T20:52:05;4.00;;;2.00;;
68076;SDS011;54866;53.458;14.540;2023-04-03T20:54:35;4.90;;;2.40;;
68076;SDS011;54866;53.458;14.540;2023-04-03T20:57:05;4.20;;;1.90;;
68076;SDS011;54866;53.458;14.540;2023-04-03T20:59:35;3.60;;;1.80;;
68076;SDS011;54866;53.458;14.540;2023-04-03T21:02:05;4.80;;;1.70;;
68076;SDS011;54866;53.458;14.540;2023-04-03T21:04:38;5.30;;;2.30;;
68076;SDS011;54866;53.458;14.540;2023-04-03T21:21:35;4.40;;;2.00;;
68076;SDS011;54866;53.458;14.540;2023-04-03T21:24:07;3.40;;;1.90;;
68076;SDS011;54866;53.458;14.540;2023-04-03T21:26:37;4.20;;;1.80;;
68076;SDS011;54866;53.458;14.540;2023-04-03T21:29:09;4.60;;;2.30;;
68076;SDS011;54866;53.458;14.540;2023-04-03T21:31:50;2.90;;;1.40;;
68076;SDS011;54866;53.458;14.540;2023-04-03T21:34:22;5.20;;;2.20;;
68076;SDS011;54866;53.458;14.540;2023-04-03T21:36:53;6.00;;;2.20;;
68076;SDS011;54866;53.458;14.540;2023-04-03T21:39:24;4.90;;;2.40;;
68076;SDS011;54866;53.458;14.540;2023-04-03T21:41:54;4.70;;;2.60;;
68076;SDS011;54866;53.458;14.540;2023-04-03T21:44:24;5.20;;;2.20;;
68076;SDS011;54866;53.458;14.540;2023-04-03T21:46:54;5.20;;;2.60;;
68076;SDS011;54866;53.458;14.540;2023-04-03T21:49:24;6.70;;;1.90;;
68076;SDS011;54866;53.458;14.540;2023-04-03T21:51:54;5.40;;;2.20;;
68076;SDS011;54866;53.458;14.540;2023-04-03T21:54:24;4.90;;;2.00;;
68076;SDS011;54866;53.458;14.540;2023-04-03T21:56:54;3.20;;;1.60;;
68076;SDS011;54866;53.458;14.540;2023-04-03T21:59:23;4.60;;;2.20;;
68076;SDS011;54866;53.458;14.540;2023-04-03T22:01:53;3.00;;;1.80;;
68076;SDS011;54866;53.458;14.540;2023-04-03T22:04:22;5.90;;;2.30;;
68076;SDS011;54866;53.458;14.540;2023-04-03T22:06:52;5.50;;;2.00;;
68076;SDS011;54866;53.458;14.540;2023-04-03T22:09:22;5.40;;;2.00;;
68076;SDS011;54866;53.458;14.540;2023-04-03T22:11:52;4.30;;;2.10;;
68076;SDS011;54866;53.458;14.540;2023-04-03T22:14:22;3.90;;;1.90;;
68076;SDS011;54866;53.458;14.540;2023-04-03T22:16:53;4.80;;;1.90;;
68076;SDS011;54866;53.458;14.540;2023-04-03T22:19:23;5.40;;;2.50;;
68076;SDS011;54866;53.458;14.540;2023-04-03T22:21:53;3.70;;;1.60;;
68076;SDS011;54866;53.458;14.540;2023-04-03T22:24:22;5.60;;;1.80;;
68076;SDS011;54866;53.458;14.540;2023-04-03T22:26:52;3.40;;;1.90;;
68076;SDS011;54866;53.458;14.540;2023-04-03T22:29:22;5.20;;;1.70;;
68076;SDS011;54866;53.458;14.540;2023-04-03T22:31:52;5.70;;;2.40;;
68076;SDS011;54866;53.458;14.540;2023-04-03T22:34:22;4.30;;;2.20;;
68076;SDS011;54866;53.458;14.540;2023-04-03T22:36:51;5.10;;;2.10;;
68076;SDS011;54866;53.458;14.540;2023-04-03T22:39:21;4.30;;;1.70;;
68076;SDS011;54866;53.458;14.540;2023-04-03T22:41:51;6.60;;;2.30;;
68076;SDS011;54866;53.458;14.540;2023-04-03T22:44:21;4.90;;;2.20;;
68076;SDS011;54866;53.458;14.540;2023-04-03T22:46:51;5.00;;;2.10;;
68076;SDS011;54866;53.458;14.540;2023-04-03T22:49:20;6.20;;;2.30;;
68076;SDS011;54866;53.458;14.540;2023-04-03T22:51:50;5.50;;;2.60;;
68076;SDS011;54866;53.458;14.540;2023-04-03T22:54:20;3.70;;;2.00;;
68076;SDS011;54866;53.458;14.540;2023-04-03T22:56:49;5.20;;;2.20;;
68076;SDS011;54866;53.458;14.540;2023-04-03T22:59:19;5.10;;;2.70;;
68076;SDS011;54866;53.458;14.540;2023-04-03T23:01:48;5.90;;;3.00;;
68076;SDS011;54866;53.458;14.540;2023-04-03T23:04:18;5.60;;;2.60;;
68076;SDS011;54866;53.458;14.540;2023-04-03T23:06:47;7.50;;;2.60;;
68076;SDS011;54866;53.458;14.540;2023-04-03T23:09:17;6.90;;;2.90;;
68076;SDS011;54866;53.458;14.540;2023-04-03T23:11:47;7.20;;;3.40;;
68076;SDS011;54866;53.458;14.540;2023-04-03T23:14:17;4.20;;;2.20;;
68076;SDS011;54866;53.458;14.540;2023-04-03T23:16:48;5.10;;;2.10;;
68076;SDS011;54866;53.458;14.540;2023-04-03T23:19:17;7.80;;;2.60;;
68076;SDS011;54866;53.458;14.540;2023-04-03T23:21:47;5.60;;;2.60;;
68076;SDS011;54866;53.458;14.540;2023-04-03T23:24:17;5.70;;;2.30;;
68076;SDS011;54866;53.458;14.540;2023-04-03T23:26:46;7.00;;;2.90;;
68076;SDS011;54866;53.458;14.540;2023-04-03T23:29:16;4.60;;;2.30;;
68076;SDS011;54866;53.458;14.540;2023-04-03T23:31:46;6.50;;;3.20;;
68076;SDS011;54866;53.458;14.540;2023-04-03T23:34:15;6.60;;;2.90;;
68076;SDS011;54866;53.458;14.540;2023-04-03T23:36:45;6.90;;;3.40;;
68076;SDS011;54866;53.458;14.540;2023-04-03T23:39:14;7.00;;;2.90;;
68076;SDS011;54866;53.458;14.540;2023-04-03T23:41:47;3.20;;;2.10;;
68076;SDS011;54866;53.458;14.540;2023-04-03T23:44:17;6.20;;;2.40;;
68076;SDS011;54866;53.458;14.540;2023-04-03T23:46:47;6.30;;;2.90;;
68076;SDS011;54866;53.458;14.540;2023-04-03T23:49:16;5.80;;;1.80;;
68076;SDS011;54866;53.458;14.540;2023-04-03T23:51:46;3.80;;;2.20;;
68076;SDS011;54866;53.458;14.540;2023-04-03T23:54:15;5.20;;;2.10;;
68076;SDS011;54866;53.458;14.540;2023-04-03T23:56:45;5.70;;;2.10;;
68076;SDS011;54866;53.458;14.540;2023-04-03T23:59:15;8.00;;;2.80;;
